sensor_id;sensor_type;location;lat;lon;timestamp;pressure;altitude;pressure_sealevel;temperature;humidity
64967;BME280;51710;38.732;-121.358;2022-10-15T00:02:00;100092.91;;;31.07;34.02
64967;BME280;51710;38.732;-121.358;2022-10-15T00:04:26;100100.66;;;31.05;33.67
64967;BME280;51710;38.732;-121.358;2022-10-15T00:06:52;100097.59;;;31.06;34.00
64967;BME280;51710;38.732;-121.358;2022-10-15T00:09:19;100096.75;;;31.06;34.17
64967;BME280;51710;38.732;-121.358;2022-10-15T00:11:45;100089.97;;;31.03;33.96
64967;BME280;51710;38.732;-121.358;2022-10-15T00:14:12;100091.06;;;31.02;33.92
64967;BME280;51710;38.732;-121.358;2022-10-15T00:16:38;100094.94;;;31.01;33.70
64967;BME280;51710;38.732;-121.358;2022-10-15T00:19:04;100092.81;;;30.98;34.06
64967;BME280;51710;38.732;-121.358;2022-10-15T00:21:31;100094.84;;;30.92;34.36
64967;BME280;51710;38.732;-121.358;2022-10-15T00:23:57;100092.00;;;30.84;34.37
64967;BME280;51710;38.732;-121.358;2022-10-15T00:26:25;100092.38;;;30.77;34.52
64967;BME280;51710;38.732;-121.358;2022-10-15T00:28:55;100090.03;;;30.71;34.54
64967;BME280;51710;38.732;-121.358;2022-10-15T00:31:22;100092.06;;;30.65;34.43
64967;BME280;51710;38.732;-121.358;2022-10-15T00:33:53;100085.63;;;30.56;34.47
64967;BME280;51710;38.732;-121.358;2022-10-15T00:36:23;100090.13;;;30.52;34.54
64967;BME280;51710;38.732;-121.358;2022-10-15T00:38:50;100084.72;;;30.47;34.89
64967;BME280;51710;38.732;-121.358;2022-10-15T00:41:22;100091.94;;;30.43;35.05
64967;BME280;51710;38.732;-121.358;2022-10-15T00:43:54;100088.25;;;30.34;34.71
64967;BME280;51710;38.732;-121.358;2022-10-15T00:47:02;100094.47;;;30.26;34.77
64967;BME280;51710;38.732;-121.358;2022-10-15T00:49:39;100092.34;;;30.18;34.79
64967;BME280;51710;38.732;-121.358;2022-10-15T00:52:18;100097.72;;;30.10;34.92
64967;BME280;51710;38.732;-121.358;2022-10-15T00:54:53;100095.16;;;30.00;34.95
64967;BME280;51710;38.732;-121.358;2022-10-15T00:57:23;100100.53;;;29.91;35.25
64967;BME280;51710;38.732;-121.358;2022-10-15T00:59:55;100096.81;;;29.82;35.60
64967;BME280;51710;38.732;-121.358;2022-10-15T01:02:22;100098.59;;;29.73;35.53
64967;BME280;51710;38.732;-121.358;2022-10-15T01:04:48;100098.13;;;29.66;35.71
64967;BME280;51710;38.732;-121.358;2022-10-15T01:07:15;100101.56;;;29.58;35.42
64967;BME280;51710;38.732;-121.358;2022-10-15T01:09:42;100099.50;;;29.50;36.05
64967;BME280;51710;38.732;-121.358;2022-10-15T01:12:18;100100.75;;;29.39;35.81
64967;BME280;51710;38.732;-121.358;2022-10-15T01:15:11;100101.41;;;29.31;36.33
64967;BME280;51710;38.732;-121.358;2022-10-15T01:23:59;100102.16;;;28.94;36.49
64967;BME280;51710;38.732;-121.358;2022-10-15T01:32:07;100107.50;;;28.57;37.51
64967;BME280;51710;38.732;-121.358;2022-10-15T01:34:59;100118.84;;;28.40;37.81
64967;BME280;51710;38.732;-121.358;2022-10-15T01:37:50;100114.66;;;28.24;38.04
64967;BME280;51710;38.732;-121.358;2022-10-15T01:40:46;100112.38;;;28.03;38.14
64967;BME280;51710;38.732;-121.358;2022-10-15T01:43:21;100120.94;;;27.86;38.35
64967;BME280;51710;38.732;-121.358;2022-10-15T01:45:54;100121.63;;;27.68;38.36
64967;BME280;51710;38.732;-121.358;2022-10-15T01:48:25;100124.47;;;27.53;38.62
64967;BME280;51710;38.732;-121.358;2022-10-15T01:50:56;100123.47;;;27.39;39.02
64967;BME280;51710;38.732;-121.358;2022-10-15T01:53:26;100127.06;;;27.24;39.14
64967;BME280;51710;38.732;-121.358;2022-10-15T01:55:57;100127.94;;;27.10;39.55
64967;BME280;51710;38.732;-121.358;2022-10-15T01:58:25;100128.53;;;26.97;39.76
64967;BME280;51710;38.732;-121.358;2022-10-15T02:00:53;100132.41;;;26.81;39.97
64967;BME280;51710;38.732;-121.358;2022-10-15T02:03:21;100129.19;;;26.69;40.13
64967;BME280;51710;38.732;-121.358;2022-10-15T02:05:55;100132.44;;;26.55;40.49
64967;BME280;51710;38.732;-121.358;2022-10-15T02:08:40;100132.47;;;26.40;40.79
64967;BME280;51710;38.732;-121.358;2022-10-15T02:11:17;100130.56;;;26.26;41.20
64967;BME280;51710;38.732;-121.358;2022-10-15T02:13:51;100135.22;;;26.15;40.90
64967;BME280;51710;38.732;-121.358;2022-10-15T02:16:53;100135.75;;;26.02;41.16
64967;BME280;51710;38.732;-121.358;2022-10-15T02:22:33;100141.16;;;25.82;41.73
64967;BME280;51710;38.732;-121.358;2022-10-15T02:25:06;100139.53;;;25.71;41.92
64967;BME280;51710;38.732;-121.358;2022-10-15T02:27:35;100141.69;;;25.64;42.28
64967;BME280;51710;38.732;-121.358;2022-10-15T02:30:06;100137.88;;;25.60;42.53
64967;BME280;51710;38.732;-121.358;2022-10-15T02:32:35;100143.59;;;25.53;42.86
64967;BME280;51710;38.732;-121.358;2022-10-15T02:35:06;100152.56;;;25.49;42.86
64967;BME280;51710;38.732;-121.358;2022-10-15T02:37:34;100139.75;;;25.44;43.22
64967;BME280;51710;38.732;-121.358;2022-10-15T02:40:02;100147.91;;;25.39;43.57
64967;BME280;51710;38.732;-121.358;2022-10-15T02:42:29;100143.47;;;25.33;43.82
64967;BME280;51710;38.732;-121.358;2022-10-15T02:44:55;100149.19;;;25.27;43.89
64967;BME280;51710;38.732;-121.358;2022-10-15T02:47:22;100145.88;;;25.20;44.20
64967;BME280;51710;38.732;-121.358;2022-10-15T02:49:48;100147.22;;;25.12;44.46
64967;BME280;51710;38.732;-121.358;2022-10-15T02:52:14;100153.75;;;25.06;44.58
64967;BME280;51710;38.732;-121.358;2022-10-15T02:54:41;100158.63;;;24.99;44.80
64967;BME280;51710;38.732;-121.358;2022-10-15T02:57:07;100168.09;;;24.92;44.94
64967;BME280;51710;38.732;-121.358;2022-10-15T02:59:33;100166.44;;;24.81;45.32
64967;BME280;51710;38.732;-121.358;2022-10-15T03:01:59;100167.16;;;24.71;45.48
64967;BME280;51710;38.732;-121.358;2022-10-15T03:04:26;100176.63;;;24.64;45.42
64967;BME280;51710;38.732;-121.358;2022-10-15T03:06:52;100173.28;;;24.57;46.18
64967;BME280;51710;38.732;-121.358;2022-10-15T03:09:19;100175.97;;;24.46;45.95
64967;BME280;51710;38.732;-121.358;2022-10-15T03:11:45;100180.50;;;24.36;46.13
64967;BME280;51710;38.732;-121.358;2022-10-15T03:14:11;100175.25;;;24.24;46.68
64967;BME280;51710;38.732;-121.358;2022-10-15T03:16:38;100174.06;;;24.15;46.52
64967;BME280;51710;38.732;-121.358;2022-10-15T03:19:04;100175.63;;;24.06;46.80
64967;BME280;51710;38.732;-121.358;2022-10-15T03:21:30;100172.84;;;24.01;46.76
64967;BME280;51710;38.732;-121.358;2022-10-15T03:23:59;100179.63;;;23.99;46.75
64967;BME280;51710;38.732;-121.358;2022-10-15T03:26:26;100191.34;;;23.99;46.83
64967;BME280;51710;38.732;-121.358;2022-10-15T03:28:52;100189.09;;;23.96;46.97
64967;BME280;51710;38.732;-121.358;2022-10-15T03:31:18;100192.34;;;23.93;47.15
64967;BME280;51710;38.732;-121.358;2022-10-15T03:33:45;100185.25;;;23.92;47.32
64967;BME280;51710;38.732;-121.358;2022-10-15T03:36:11;100188.53;;;23.94;47.06
64967;BME280;51710;38.732;-121.358;2022-10-15T03:38:37;100195.63;;;23.95;47.21
64967;BME280;51710;38.732;-121.358;2022-10-15T03:41:04;100205.69;;;23.95;47.08
64967;BME280;51710;38.732;-121.358;2022-10-15T03:43:30;100201.00;;;23.90;47.18
64967;BME280;51710;38.732;-121.358;2022-10-15T03:46:01;100196.59;;;23.84;47.53
64967;BME280;51710;38.732;-121.358;2022-10-15T03:48:28;100195.72;;;23.79;47.83
64967;BME280;51710;38.732;-121.358;2022-10-15T03:50:55;100197.25;;;23.70;47.53
64967;BME280;51710;38.732;-121.358;2022-10-15T03:53:21;100203.72;;;23.64;47.93
64967;BME280;51710;38.732;-121.358;2022-10-15T03:55:48;100203.94;;;23.57;47.94
64967;BME280;51710;38.732;-121.358;2022-10-15T03:58:15;100203.63;;;23.54;47.94
64967;BME280;51710;38.732;-121.358;2022-10-15T04:00:42;100200.59;;;23.50;47.85
64967;BME280;51710;38.732;-121.358;2022-10-15T04:03:09;100206.19;;;23.43;47.83
64967;BME280;51710;38.732;-121.358;2022-10-15T04:05:36;100207.31;;;23.26;48.04
64967;BME280;51710;38.732;-121.358;2022-10-15T04:08:03;100206.53;;;23.09;48.38
64967;BME280;51710;38.732;-121.358;2022-10-15T04:10:29;100211.78;;;22.94;48.80
64967;BME280;51710;38.732;-121.358;2022-10-15T04:12:55;100210.22;;;22.81;49.01
64967;BME280;51710;38.732;-121.358;2022-10-15T04:15:21;100208.69;;;22.69;49.37
64967;BME280;51710;38.732;-121.358;2022-10-15T04:17:48;100216.16;;;22.62;49.72
64967;BME280;51710;38.732;-121.358;2022-10-15T04:20:14;100217.19;;;22.56;49.48
64967;BME280;51710;38.732;-121.358;2022-10-15T04:22:40;100218.94;;;22.50;49.51
64967;BME280;51710;38.732;-121.358;2022-10-15T04:25:07;100221.59;;;22.45;49.69
64967;BME280;51710;38.732;-121.358;2022-10-15T04:27:34;100224.94;;;22.35;49.74
64967;BME280;51710;38.732;-121.358;2022-10-15T04:30:00;100221.47;;;22.23;50.07
64967;BME280;51710;38.732;-121.358;2022-10-15T04:32:27;100221.81;;;22.10;50.34
64967;BME280;51710;38.732;-121.358;2022-10-15T04:34:53;100232.44;;;22.00;50.70
64967;BME280;51710;38.732;-121.358;2022-10-15T04:37:20;100231.69;;;21.88;51.21
64967;BME280;51710;38.732;-121.358;2022-10-15T04:39:46;100237.38;;;21.75;51.60
64967;BME280;51710;38.732;-121.358;2022-10-15T04:42:12;100238.25;;;21.64;51.63
64967;BME280;51710;38.732;-121.358;2022-10-15T04:44:39;100243.47;;;21.54;51.64
64967;BME280;51710;38.732;-121.358;2022-10-15T04:47:05;100248.09;;;21.42;51.87
64967;BME280;51710;38.732;-121.358;2022-10-15T04:49:31;100250.34;;;21.34;52.20
64967;BME280;51710;38.732;-121.358;2022-10-15T04:51:58;100253.66;;;21.24;52.58
64967;BME280;51710;38.732;-121.358;2022-10-15T04:54:24;100259.44;;;21.16;52.66
64967;BME280;51710;38.732;-121.358;2022-10-15T04:56:50;100264.16;;;21.09;52.97
64967;BME280;51710;38.732;-121.358;2022-10-15T04:59:17;100262.97;;;21.05;52.97
64967;BME280;51710;38.732;-121.358;2022-10-15T05:01:43;100263.56;;;21.07;53.17
64967;BME280;51710;38.732;-121.358;2022-10-15T05:04:10;100262.84;;;21.11;53.46
64967;BME280;51710;38.732;-121.358;2022-10-15T05:06:37;100264.38;;;21.19;53.33
64967;BME280;51710;38.732;-121.358;2022-10-15T05:09:03;100262.13;;;21.27;53.22
64967;BME280;51710;38.732;-121.358;2022-10-15T05:11:30;100262.00;;;21.34;53.32
64967;BME280;51710;38.732;-121.358;2022-10-15T05:13:56;100263.75;;;21.40;53.17
64967;BME280;51710;38.732;-121.358;2022-10-15T05:16:26;100263.63;;;21.47;53.21
64967;BME280;51710;38.732;-121.358;2022-10-15T05:19:04;100269.97;;;21.52;53.13
64967;BME280;51710;38.732;-121.358;2022-10-15T05:21:32;100263.81;;;21.57;52.93
64967;BME280;51710;38.732;-121.358;2022-10-15T05:23:59;100267.72;;;21.61;53.17
64967;BME280;51710;38.732;-121.358;2022-10-15T05:26:27;100277.03;;;21.65;52.97
64967;BME280;51710;38.732;-121.358;2022-10-15T05:28:56;100271.34;;;21.66;52.90
64967;BME280;51710;38.732;-121.358;2022-10-15T05:31:25;100272.09;;;21.62;52.81
64967;BME280;51710;38.732;-121.358;2022-10-15T05:33:52;100271.16;;;21.56;52.87
64967;BME280;51710;38.732;-121.358;2022-10-15T05:36:21;100272.44;;;21.54;53.09
64967;BME280;51710;38.732;-121.358;2022-10-15T05:38:50;100269.38;;;21.50;53.17
64967;BME280;51710;38.732;-121.358;2022-10-15T05:41:20;100276.38;;;21.46;53.42
64967;BME280;51710;38.732;-121.358;2022-10-15T05:43:50;100280.63;;;21.42;53.27
64967;BME280;51710;38.732;-121.358;2022-10-15T05:46:17;100272.47;;;21.42;53.63
64967;BME280;51710;38.732;-121.358;2022-10-15T05:48:50;100279.28;;;21.45;53.73
64967;BME280;51710;38.732;-121.358;2022-10-15T05:51:17;100281.78;;;21.46;53.40
64967;BME280;51710;38.732;-121.358;2022-10-15T05:53:44;100276.38;;;21.46;53.60
64967;BME280;51710;38.732;-121.358;2022-10-15T05:56:12;100280.13;;;21.45;53.64
64967;BME280;51710;38.732;-121.358;2022-10-15T05:58:39;100283.91;;;21.44;53.74
64967;BME280;51710;38.732;-121.358;2022-10-15T06:01:08;100276.03;;;21.43;53.58
64967;BME280;51710;38.732;-121.358;2022-10-15T06:03:35;100272.47;;;21.42;53.48
64967;BME280;51710;38.732;-121.358;2022-10-15T06:06:01;100284.94;;;21.43;53.59
64967;BME280;51710;38.732;-121.358;2022-10-15T06:08:29;100282.47;;;21.42;53.50
64967;BME280;51710;38.732;-121.358;2022-10-15T06:11:00;100283.56;;;21.41;53.74
64967;BME280;51710;38.732;-121.358;2022-10-15T06:13:27;100282.63;;;21.35;53.69
64967;BME280;51710;38.732;-121.358;2022-10-15T06:15:53;100281.19;;;21.33;53.91
64967;BME280;51710;38.732;-121.358;2022-10-15T06:18:19;100287.94;;;21.30;54.06
64967;BME280;51710;38.732;-121.358;2022-10-15T06:20:51;100289.22;;;21.27;54.07
64967;BME280;51710;38.732;-121.358;2022-10-15T06:23:18;100293.00;;;21.27;53.80
64967;BME280;51710;38.732;-121.358;2022-10-15T06:25:46;100297.59;;;21.26;53.94
64967;BME280;51710;38.732;-121.358;2022-10-15T06:28:12;100294.53;;;21.22;54.09
64967;BME280;51710;38.732;-121.358;2022-10-15T06:30:38;100299.94;;;21.22;54.25
64967;BME280;51710;38.732;-121.358;2022-10-15T06:33:05;100293.94;;;21.20;54.20
64967;BME280;51710;38.732;-121.358;2022-10-15T06:35:31;100307.72;;;21.19;54.04
64967;BME280;51710;38.732;-121.358;2022-10-15T06:38:04;100304.41;;;21.17;54.38
64967;BME280;51710;38.732;-121.358;2022-10-15T06:40:31;100306.78;;;21.13;54.33
64967;BME280;51710;38.732;-121.358;2022-10-15T06:43:05;100305.38;;;21.11;54.52
64967;BME280;51710;38.732;-121.358;2022-10-15T06:45:34;100295.59;;;21.10;54.23
64967;BME280;51710;38.732;-121.358;2022-10-15T06:48:02;100299.13;;;21.10;54.52
64967;BME280;51710;38.732;-121.358;2022-10-15T06:50:33;100293.72;;;21.10;54.64
64967;BME280;51710;38.732;-121.358;2022-10-15T06:53:00;100292.88;;;21.10;54.31
64967;BME280;51710;38.732;-121.358;2022-10-15T06:55:27;100289.00;;;21.06;54.29
64967;BME280;51710;38.732;-121.358;2022-10-15T06:57:54;100294.63;;;21.04;54.34
64967;BME280;51710;38.732;-121.358;2022-10-15T07:00:22;100290.53;;;21.02;54.15
64967;BME280;51710;38.732;-121.358;2022-10-15T07:02:49;100289.31;;;20.98;54.68
64967;BME280;51710;38.732;-121.358;2022-10-15T07:05:16;100297.69;;;20.96;54.59
64967;BME280;51710;38.732;-121.358;2022-10-15T07:07:50;100295.69;;;20.92;54.70
64967;BME280;51710;38.732;-121.358;2022-10-15T07:10:17;100293.66;;;20.87;55.04
64967;BME280;51710;38.732;-121.358;2022-10-15T07:12:43;100288.25;;;20.87;54.97
64967;BME280;51710;38.732;-121.358;2022-10-15T07:15:10;100291.19;;;20.86;54.78
64967;BME280;51710;38.732;-121.358;2022-10-15T07:17:36;100289.56;;;20.85;54.81
64967;BME280;51710;38.732;-121.358;2022-10-15T07:20:05;100295.44;;;20.82;54.90
64967;BME280;51710;38.732;-121.358;2022-10-15T07:22:31;100299.69;;;20.78;55.42
64967;BME280;51710;38.732;-121.358;2022-10-15T07:24:57;100302.63;;;20.76;55.07
64967;BME280;51710;38.732;-121.358;2022-10-15T07:27:24;100303.31;;;20.72;55.01
64967;BME280;51710;38.732;-121.358;2022-10-15T07:29:50;100308.13;;;20.70;55.25
64967;BME280;51710;38.732;-121.358;2022-10-15T07:32:16;100315.44;;;20.69;55.35
64967;BME280;51710;38.732;-121.358;2022-10-15T07:34:42;100317.31;;;20.69;55.18
64967;BME280;51710;38.732;-121.358;2022-10-15T07:37:09;100318.81;;;20.65;55.36
64967;BME280;51710;38.732;-121.358;2022-10-15T07:39:35;100316.59;;;20.62;55.61
64967;BME280;51710;38.732;-121.358;2022-10-15T07:42:01;100330.84;;;20.57;55.25
64967;BME280;51710;38.732;-121.358;2022-10-15T07:44:28;100331.75;;;20.51;55.73
64967;BME280;51710;38.732;-121.358;2022-10-15T07:46:54;100336.78;;;20.48;56.11
64967;BME280;51710;38.732;-121.358;2022-10-15T07:49:20;100334.78;;;20.43;55.66
64967;BME280;51710;38.732;-121.358;2022-10-15T07:51:46;100337.69;;;20.42;56.28
64967;BME280;51710;38.732;-121.358;2022-10-15T07:54:13;100334.44;;;20.40;56.05
64967;BME280;51710;38.732;-121.358;2022-10-15T07:56:39;100335.94;;;20.36;55.96
64967;BME280;51710;38.732;-121.358;2022-10-15T07:59:07;100330.38;;;20.31;56.25
64967;BME280;51710;38.732;-121.358;2022-10-15T08:01:33;100339.53;;;20.30;56.44
64967;BME280;51710;38.732;-121.358;2022-10-15T08:04:00;100338.38;;;20.26;56.39
64967;BME280;51710;38.732;-121.358;2022-10-15T08:06:26;100331.75;;;20.22;56.43
64967;BME280;51710;38.732;-121.358;2022-10-15T08:08:52;100335.97;;;20.17;56.56
64967;BME280;51710;38.732;-121.358;2022-10-15T08:11:19;100338.50;;;20.12;56.75
64967;BME280;51710;38.732;-121.358;2022-10-15T08:13:45;100336.88;;;20.11;56.77
64967;BME280;51710;38.732;-121.358;2022-10-15T08:16:14;100334.59;;;20.08;56.88
64967;BME280;51710;38.732;-121.358;2022-10-15T08:18:41;100340.47;;;20.05;56.91
64967;BME280;51710;38.732;-121.358;2022-10-15T08:21:09;100339.88;;;20.03;56.85
64967;BME280;51710;38.732;-121.358;2022-10-15T08:23:36;100343.28;;;19.99;57.01
64967;BME280;51710;38.732;-121.358;2022-10-15T08:26:03;100357.00;;;19.97;57.15
64967;BME280;51710;38.732;-121.358;2022-10-15T08:28:30;100350.41;;;19.93;57.08
64967;BME280;51710;38.732;-121.358;2022-10-15T08:30:58;100357.91;;;19.91;57.01
64967;BME280;51710;38.732;-121.358;2022-10-15T08:33:24;100351.31;;;19.87;57.14
64967;BME280;51710;38.732;-121.358;2022-10-15T08:35:51;100351.75;;;19.84;57.26
64967;BME280;51710;38.732;-121.358;2022-10-15T08:38:18;100357.25;;;19.78;57.25
64967;BME280;51710;38.732;-121.358;2022-10-15T08:40:48;100362.03;;;19.76;57.46
64967;BME280;51710;38.732;-121.358;2022-10-15T08:45:53;100364.84;;;19.69;57.37
64967;BME280;51710;38.732;-121.358;2022-10-15T08:48:28;100372.94;;;19.69;57.45
64967;BME280;51710;38.732;-121.358;2022-10-15T08:51:02;100375.88;;;19.68;57.44
64967;BME280;51710;38.732;-121.358;2022-10-15T08:53:40;100375.50;;;19.64;57.58
64967;BME280;51710;38.732;-121.358;2022-10-15T08:59:39;100386.97;;;19.60;57.61
64967;BME280;51710;38.732;-121.358;2022-10-15T09:01:58;100386.16;;;19.59;57.62
64967;BME280;51710;38.732;-121.358;2022-10-15T09:07:34;100397.84;;;19.53;57.65
64967;BME280;51710;38.732;-121.358;2022-10-15T09:10:15;100399.13;;;19.51;57.75
64967;BME280;51710;38.732;-121.358;2022-10-15T09:12:45;100400.84;;;19.45;57.88
64967;BME280;51710;38.732;-121.358;2022-10-15T09:15:17;100403.38;;;19.40;57.81
64967;BME280;51710;38.732;-121.358;2022-10-15T09:17:48;100401.78;;;19.33;58.00
64967;BME280;51710;38.732;-121.358;2022-10-15T09:20:22;100408.03;;;19.27;58.22
64967;BME280;51710;38.732;-121.358;2022-10-15T09:22:51;100401.06;;;19.19;58.19
64967;BME280;51710;38.732;-121.358;2022-10-15T09:25:20;100407.31;;;19.13;58.42
64967;BME280;51710;38.732;-121.358;2022-10-15T09:27:48;100400.13;;;19.07;58.45
64967;BME280;51710;38.732;-121.358;2022-10-15T09:33:30;100403.34;;;18.91;58.72
64967;BME280;51710;38.732;-121.358;2022-10-15T09:38:39;100409.84;;;18.83;59.03
64967;BME280;51710;38.732;-121.358;2022-10-15T09:41:35;100404.66;;;18.82;59.12
64967;BME280;51710;38.732;-121.358;2022-10-15T09:44:07;100412.13;;;18.80;59.23
64967;BME280;51710;38.732;-121.358;2022-10-15T09:46:49;100414.22;;;18.78;59.44
64967;BME280;51710;38.732;-121.358;2022-10-15T09:49:19;100406.34;;;18.76;59.25
64967;BME280;51710;38.732;-121.358;2022-10-15T09:57:10;100407.19;;;18.77;59.17
64967;BME280;51710;38.732;-121.358;2022-10-15T09:59:37;100399.53;;;18.74;59.09
64967;BME280;51710;38.732;-121.358;2022-10-15T10:02:18;100408.88;;;18.71;59.38
64967;BME280;51710;38.732;-121.358;2022-10-15T10:04:45;100405.34;;;18.71;59.55
64967;BME280;51710;38.732;-121.358;2022-10-15T10:07:31;100410.75;;;18.71;59.34
64967;BME280;51710;38.732;-121.358;2022-10-15T10:10:23;100411.19;;;18.68;59.42
64967;BME280;51710;38.732;-121.358;2022-10-15T10:12:50;100421.81;;;18.63;59.43
64967;BME280;51710;38.732;-121.358;2022-10-15T10:17:54;100425.56;;;18.55;59.72
64967;BME280;51710;38.732;-121.358;2022-10-15T10:20:23;100425.16;;;18.52;59.90
64967;BME280;51710;38.732;-121.358;2022-10-15T10:22:55;100421.47;;;18.46;60.10
64967;BME280;51710;38.732;-121.358;2022-10-15T10:25:34;100435.59;;;18.42;60.07
64967;BME280;51710;38.732;-121.358;2022-10-15T10:30:59;100427.13;;;18.32;60.47
64967;BME280;51710;38.732;-121.358;2022-10-15T10:33:47;100433.53;;;18.31;60.58
64967;BME280;51710;38.732;-121.358;2022-10-15T10:36:32;100432.75;;;18.30;60.75
64967;BME280;51710;38.732;-121.358;2022-10-15T10:39:30;100436.44;;;18.29;60.95
64967;BME280;51710;38.732;-121.358;2022-10-15T10:42:00;100439.81;;;18.25;60.87
64967;BME280;51710;38.732;-121.358;2022-10-15T10:49:33;100431.09;;;18.23;60.88
64967;BME280;51710;38.732;-121.358;2022-10-15T10:51:59;100428.22;;;18.18;61.07
64967;BME280;51710;38.732;-121.358;2022-10-15T10:54:27;100426.97;;;18.14;61.21
64967;BME280;51710;38.732;-121.358;2022-10-15T10:56:56;100434.44;;;18.12;61.53
64967;BME280;51710;38.732;-121.358;2022-10-15T10:59:33;100425.78;;;18.10;61.52
64967;BME280;51710;38.732;-121.358;2022-10-15T11:02:01;100430.53;;;18.08;61.58
64967;BME280;51710;38.732;-121.358;2022-10-15T11:04:34;100443.63;;;18.04;61.66
64967;BME280;51710;38.732;-121.358;2022-10-15T11:07:04;100444.84;;;18.02;61.92
64967;BME280;51710;38.732;-121.358;2022-10-15T11:09:41;100441.97;;;17.96;62.18
64967;BME280;51710;38.732;-121.358;2022-10-15T11:29:14;100477.28;;;17.62;63.47
64967;BME280;51710;38.732;-121.358;2022-10-15T11:34:56;100474.78;;;17.54;63.54
64967;BME280;51710;38.732;-121.358;2022-10-15T11:49:09;100485.94;;;17.38;64.63
64967;BME280;51710;38.732;-121.358;2022-10-15T11:54:28;100496.50;;;17.33;64.51
64967;BME280;51710;38.732;-121.358;2022-10-15T11:56:57;100506.47;;;17.33;64.50
64967;BME280;51710;38.732;-121.358;2022-10-15T12:02:33;100511.63;;;17.34;64.74
64967;BME280;51710;38.732;-121.358;2022-10-15T12:05:05;100509.16;;;17.33;64.92
64967;BME280;51710;38.732;-121.358;2022-10-15T12:07:45;100507.47;;;17.32;64.90
64967;BME280;51710;38.732;-121.358;2022-10-15T12:13:02;100509.97;;;17.33;64.81
64967;BME280;51710;38.732;-121.358;2022-10-15T12:15:53;100511.00;;;17.32;64.72
64967;BME280;51710;38.732;-121.358;2022-10-15T12:21:39;100518.66;;;17.29;64.72
64967;BME280;51710;38.732;-121.358;2022-10-15T12:29:44;100521.94;;;17.18;65.18
64967;BME280;51710;38.732;-121.358;2022-10-15T12:35:29;100515.34;;;17.14;65.26
64967;BME280;51710;38.732;-121.358;2022-10-15T12:38:17;100512.22;;;17.10;65.42
64967;BME280;51710;38.732;-121.358;2022-10-15T12:40:45;100507.84;;;17.03;65.52
64967;BME280;51710;38.732;-121.358;2022-10-15T12:43:21;100515.28;;;16.94;65.88
64967;BME280;51710;38.732;-121.358;2022-10-15T12:45:51;100514.03;;;16.90;66.24
64967;BME280;51710;38.732;-121.358;2022-10-15T12:48:31;100514.88;;;16.84;66.25
64967;BME280;51710;38.732;-121.358;2022-10-15T12:53:50;100511.94;;;16.79;66.43
64967;BME280;51710;38.732;-121.358;2022-10-15T12:56:42;100512.34;;;16.76;66.97
64967;BME280;51710;38.732;-121.358;2022-10-15T13:02:35;100524.53;;;16.72;66.93
64967;BME280;51710;38.732;-121.358;2022-10-15T13:05:04;100530.94;;;16.71;67.27
64967;BME280;51710;38.732;-121.358;2022-10-15T13:07:32;100531.56;;;16.66;67.35
64967;BME280;51710;38.732;-121.358;2022-10-15T13:10:02;100540.00;;;16.63;67.36
64967;BME280;51710;38.732;-121.358;2022-10-15T13:12:29;100542.91;;;16.62;67.73
64967;BME280;51710;38.732;-121.358;2022-10-15T13:15:01;100545.16;;;16.58;67.95
64967;BME280;51710;38.732;-121.358;2022-10-15T13:17:32;100542.88;;;16.55;68.02
64967;BME280;51710;38.732;-121.358;2022-10-15T13:20:04;100555.91;;;16.52;68.05
64967;BME280;51710;38.732;-121.358;2022-10-15T13:22:34;100556.09;;;16.50;68.46
64967;BME280;51710;38.732;-121.358;2022-10-15T13:25:02;100559.19;;;16.47;68.35
64967;BME280;51710;38.732;-121.358;2022-10-15T13:27:32;100562.22;;;16.44;68.66
64967;BME280;51710;38.732;-121.358;2022-10-15T13:30:03;100559.75;;;16.43;68.67
64967;BME280;51710;38.732;-121.358;2022-10-15T13:32:36;100556.03;;;16.44;68.65
64967;BME280;51710;38.732;-121.358;2022-10-15T13:35:10;100555.19;;;16.43;68.67
64967;BME280;51710;38.732;-121.358;2022-10-15T13:37:39;100548.16;;;16.42;68.75
64967;BME280;51710;38.732;-121.358;2022-10-15T13:40:07;100553.94;;;16.39;68.72
64967;BME280;51710;38.732;-121.358;2022-10-15T13:42:33;100555.34;;;16.35;68.92
64967;BME280;51710;38.732;-121.358;2022-10-15T13:47:35;100553.91;;;16.33;69.04
64967;BME280;51710;38.732;-121.358;2022-10-15T13:50:18;100549.75;;;16.30;69.26
64967;BME280;51710;38.732;-121.358;2022-10-15T13:55:36;100550.78;;;16.29;69.21
64967;BME280;51710;38.732;-121.358;2022-10-15T14:03:22;100560.47;;;16.24;69.60
64967;BME280;51710;38.732;-121.358;2022-10-15T14:05:51;100568.72;;;16.22;69.65
64967;BME280;51710;38.732;-121.358;2022-10-15T14:08:32;100569.56;;;16.23;69.89
64967;BME280;51710;38.732;-121.358;2022-10-15T14:10:59;100567.88;;;16.22;69.69
64967;BME280;51710;38.732;-121.358;2022-10-15T14:13:27;100566.22;;;16.21;69.78
64967;BME280;51710;38.732;-121.358;2022-10-15T14:16:11;100569.94;;;16.20;69.82
64967;BME280;51710;38.732;-121.358;2022-10-15T14:18:51;100573.66;;;16.19;69.94
64967;BME280;51710;38.732;-121.358;2022-10-15T14:21:21;100583.56;;;16.18;69.58
64967;BME280;51710;38.732;-121.358;2022-10-15T14:24:11;100588.13;;;16.18;70.04
64967;BME280;51710;38.732;-121.358;2022-10-15T14:26:40;100588.94;;;16.18;69.83
64967;BME280;51710;38.732;-121.358;2022-10-15T14:29:36;100589.97;;;16.17;70.06
64967;BME280;51710;38.732;-121.358;2022-10-15T14:32:01;100587.28;;;16.17;69.92